Time;durP1;ratioP1;P1;durP2;ratioP2;P2;SDS_P1;SDS_P2;PMS_P1;PMS_P2;Temp;Humidity;BMP_temperature;BMP_pressure;BME280_temperature;BME280_humidity;BME280_pressure;Samples;Min_cycle;Max_cycle;Signal;HPM_P1;HPM_P2
2023/07/01 00:01:27;;;;;;;8.35;4.43;;;;;;;25.79;47.03;99480.69;5012702;28;20077;-67
2023/07/01 00:03:56;;;;;;;9.38;4.60;;;;;;;25.78;47.40;99469.97;5012419;28;20104;-68
2023/07/01 00:06:25;;;;;;;9.02;4.53;;;;;;;25.76;47.54;99482.97;5012277;28;20410;-68
2023/07/01 00:08:53;;;;;;;10.25;4.70;;;;;;;25.74;47.40;99479.59;5012168;28;20069;-67
2023/07/01 00:11:21;;;;;;;9.05;4.47;;;;;;;25.72;47.89;99488.00;5012196;28;20057;-66
2023/07/01 00:13:50;;;;;;;8.27;4.70;;;;;;;25.69;48.24;99478.31;5012394;28;20048;-66
2023/07/01 00:16:18;;;;;;;8.35;4.35;;;;;;;25.68;48.34;99476.66;5012313;28;20057;-67
2023/07/01 00:18:46;;;;;;;9.18;4.60;;;;;;;25.67;48.25;99480.44;5012112;28;20108;-66
2023/07/01 00:21:16;;;;;;;7.97;4.38;;;;;;;25.67;48.42;99474.97;5012083;28;20045;-67
2023/07/01 00:23:44;;;;;;;7.47;4.20;;;;;;;25.65;48.33;99471.56;5011867;28;20045;-67
2023/07/01 00:26:12;;;;;;;8.32;4.60;;;;;;;25.64;48.23;99464.44;5011847;28;20805;-67
2023/07/01 00:28:40;;;;;;;8.15;4.28;;;;;;;25.63;48.20;99468.22;5012095;28;20052;-67
2023/07/01 00:31:09;;;;;;;9.15;4.20;;;;;;;25.59;48.53;99466.97;5012042;28;20056;-68
2023/07/01 00:33:37;;;;;;;7.28;4.30;;;;;;;25.57;48.40;99469.03;5012005;28;20058;-67
2023/07/01 00:36:05;;;;;;;7.53;4.07;;;;;;;25.56;48.50;99472.00;5011794;28;20045;-67
2023/07/01 00:38:35;;;;;;;8.43;4.40;;;;;;;25.54;48.61;99464.00;5011742;28;20088;-67
2023/07/01 00:41:03;;;;;;;7.25;4.15;;;;;;;25.52;48.58;99471.56;5012158;28;20125;-67
2023/07/01 00:43:31;;;;;;;6.95;4.47;;;;;;;25.51;48.93;99464.44;5012011;28;20482;-68
2023/07/01 00:46:02;;;;;;;7.63;4.72;;;;;;;25.50;49.16;99468.22;5011777;28;20084;-66
2023/07/01 00:48:31;;;;;;;7.80;4.10;;;;;;;25.48;49.12;99470.31;5012252;28;20132;-67
2023/07/01 00:50:59;;;;;;;8.25;4.15;;;;;;;25.46;49.15;99466.94;5012181;28;20392;-67
2023/07/01 00:53:27;;;;;;;9.48;4.55;;;;;;;25.44;49.30;99460.00;5012803;28;20459;-66
2023/07/01 00:55:57;;;;;;;7.47;4.40;;;;;;;25.43;49.16;99459.16;5012648;28;20136;-68
2023/07/01 00:58:25;;;;;;;8.68;4.03;;;;;;;25.43;49.29;99461.06;5012854;28;20129;-68
2023/07/01 01:00:56;;;;;;;8.82;4.53;;;;;;;25.39;49.59;99450.56;5012724;28;20050;-67
2023/07/01 01:03:32;;;;;;;11.02;4.45;;;;;;;25.38;49.76;99448.00;5012431;28;20046;-67
2023/07/01 01:06:06;;;;;;;7.00;4.15;;;;;;;25.38;50.11;99450.75;5013099;28;20153;-69
2023/07/01 01:08:40;;;;;;;8.85;4.25;;;;;;;25.29;50.12;99444.66;5013500;28;20050;-68
2023/07/01 01:11:11;;;;;;;8.57;4.28;;;;;;;25.27;50.08;99441.28;5013784;28;20125;-68
2023/07/01 01:13:39;;;;;;;7.80;3.90;;;;;;;25.26;50.18;99438.75;5014443;28;20054;-68
2023/07/01 01:16:08;;;;;;;7.63;4.07;;;;;;;25.24;50.21;99432.69;5013794;28;20513;-67
2023/07/01 01:18:36;;;;;;;9.25;4.25;;;;;;;25.23;50.37;99434.56;5013398;28;20049;-68
2023/07/01 01:21:06;;;;;;;7.78;4.05;;;;;;;25.21;50.51;99436.66;5013892;28;20045;-67
2023/07/01 01:23:43;;;;;;;8.70;4.30;;;;;;;25.21;50.43;99431.22;5014018;28;20477;-68
2023/07/01 01:26:18;;;;;;;6.57;4.03;;;;;;;25.18;50.70;99428.88;5013388;28;20518;-69
2023/07/01 01:28:48;;;;;;;6.10;4.18;;;;;;;25.19;50.42;99432.44;5013135;28;20483;-69
2023/07/01 01:31:17;;;;;;;7.00;4.22;;;;;;;25.18;50.54;99425.31;5013727;28;20042;-69
2023/07/01 01:33:45;;;;;;;7.15;3.88;;;;;;;25.15;50.81;99418.38;5014021;28;20054;-68
2023/07/01 01:36:23;;;;;;;8.52;4.45;;;;;;;25.15;50.58;99425.72;5013158;28;20045;-68
2023/07/01 01:38:52;;;;;;;7.22;4.15;;;;;;;25.14;50.67;99422.16;5013430;28;20085;-68
2023/07/01 01:41:28;;;;;;;8.57;4.03;;;;;;;25.13;50.83;99422.38;5013589;28;20046;-68
2023/07/01 01:44:03;;;;;;;7.45;4.15;;;;;;;25.11;51.05;99420.69;5013054;28;20061;-69
2023/07/01 01:46:32;;;;;;;5.53;3.78;;;;;;;25.08;50.79;99426.53;5011867;28;20053;-68
2023/07/01 01:49:03;;;;;;;7.68;3.95;;;;;;;25.06;51.07;99427.81;5011623;28;20046;-68
2023/07/01 01:51:33;;;;;;;9.60;4.00;;;;;;;25.03;51.05;99429.06;5010968;28;20108;-68
2023/07/01 01:54:05;;;;;;;9.50;4.40;;;;;;;25.02;51.12;99426.53;5011464;28;20499;-67
2023/07/01 01:56:34;;;;;;;7.90;4.25;;;;;;;25.02;51.11;99432.00;5011739;28;20046;-66
2023/07/01 01:59:07;;;;;;;6.68;4.00;;;;;;;25.00;51.41;99425.88;5011256;28;20050;-66
2023/07/01 02:01:36;;;;;;;7.05;3.67;;;;;;;24.98;51.49;99419.75;5011120;28;20061;-68
2023/07/01 02:04:05;;;;;;;6.32;4.15;;;;;;;24.98;51.33;99425.22;5011052;28;20046;-68
2023/07/01 02:06:34;;;;;;;7.03;4.07;;;;;;;24.96;51.57;99419.97;5011054;28;20053;-68
2023/07/01 02:09:03;;;;;;;6.15;4.03;;;;;;;24.96;51.39;99421.88;5011102;28;20068;-67
2023/07/01 02:11:32;;;;;;;7.38;3.90;;;;;;;24.95;51.71;99423.75;5011184;28;20050;-67
2023/07/01 02:14:00;;;;;;;8.73;4.07;;;;;;;24.94;51.50;99421.22;5011784;28;20482;-66
2023/07/01 02:16:30;;;;;;;6.35;4.10;;;;;;;24.93;51.64;99423.13;5014542;28;20057;-66
2023/07/01 02:18:58;;;;;;;7.57;4.10;;;;;;;24.91;51.92;99425.22;5014671;28;20129;-66
2023/07/01 02:21:26;;;;;;;11.98;4.43;;;;;;;24.90;51.98;99422.66;5014293;28;20046;-68
2023/07/01 02:23:55;;;;;;;5.82;3.45;;;;;;;24.89;51.88;99427.28;5014447;28;20137;-67
2023/07/01 02:26:23;;;;;;;7.07;3.67;;;;;;;24.86;52.03;99426.88;5014439;28;20054;-68
2023/07/01 02:28:51;;;;;;;7.13;4.00;;;;;;;24.84;51.96;99425.19;5014279;28;20046;-68
2023/07/01 02:31:19;;;;;;;7.30;4.05;;;;;;;24.83;51.94;99430.84;5014063;28;20675;-67
2023/07/01 02:33:51;;;;;;;7.32;4.50;;;;;;;24.82;52.20;99429.19;5014349;28;20145;-67
2023/07/01 02:36:19;;;;;;;8.68;4.10;;;;;;;24.82;52.27;99423.72;5014307;28;20053;-68
2023/07/01 02:38:47;;;;;;;10.70;4.10;;;;;;;24.80;52.21;99426.66;5014002;28;20052;-69
2023/07/01 02:41:15;;;;;;;7.35;4.20;;;;;;;24.80;52.18;99428.50;5014013;28;20119;-67
2023/07/01 02:43:43;;;;;;;7.60;4.25;;;;;;;24.77;52.37;99426.19;5014282;28;20054;-68
2023/07/01 02:46:11;;;;;;;8.88;4.13;;;;;;;24.77;52.39;99418.03;5014512;28;20505;-68
2023/07/01 02:48:39;;;;;;;7.70;4.10;;;;;;;24.75;52.57;99409.22;5013879;28;20042;-66
2023/07/01 02:51:09;;;;;;;6.00;4.28;;;;;;;24.73;52.67;99416.75;5013689;28;20586;-66
2023/07/01 02:53:38;;;;;;;9.10;4.60;;;;;;;24.72;52.62;99420.53;5013649;28;20054;-68
2023/07/01 02:56:07;;;;;;;6.30;4.53;;;;;;;24.71;52.97;99421.59;5013534;28;20557;-67
2023/07/01 02:58:35;;;;;;;9.68;4.32;;;;;;;24.70;52.98;99423.44;5013537;28;20056;-67
2023/07/01 03:01:03;;;;;;;5.88;4.03;;;;;;;24.68;52.83;99430.16;5013834;28;20045;-68
2023/07/01 03:03:31;;;;;;;9.65;4.10;;;;;;;24.68;52.88;99435.59;5013453;28;20483;-67
2023/07/01 03:06:00;;;;;;;6.75;4.00;;;;;;;24.67;52.95;99428.47;5013807;28;20050;-68
2023/07/01 03:08:32;;;;;;;6.60;4.13;;;;;;;24.64;52.88;99424.28;5013505;28;20050;-67
2023/07/01 03:11:00;;;;;;;7.00;4.00;;;;;;;24.64;53.00;99428.88;5013174;28;20049;-68
2023/07/01 03:13:28;;;;;;;7.65;4.40;;;;;;;24.64;53.20;99426.16;5013633;28;20077;-68
2023/07/01 03:15:56;;;;;;;6.55;4.22;;;;;;;24.63;53.29;99421.75;5013626;28;20045;-67
2023/07/01 03:18:25;;;;;;;7.30;4.05;;;;;;;24.62;53.30;99425.53;5013283;28;20046;-67
2023/07/01 03:20:57;;;;;;;7.38;4.05;;;;;;;24.60;53.52;99422.13;5013349;28;20462;-68
2023/07/01 03:23:25;;;;;;;8.57;4.35;;;;;;;24.60;53.61;99422.13;5013209;28;20049;-68
2023/07/01 03:25:55;;;;;;;7.97;4.03;;;;;;;24.59;53.59;99429.47;5030630;28;20049;-67
2023/07/01 03:28:23;;;;;;;6.38;4.05;;;;;;;24.59;53.67;99428.63;5032728;28;20100;-67
2023/07/01 03:30:51;;;;;;;7.10;4.07;;;;;;;24.58;54.03;99429.69;5032831;28;20096;-68
2023/07/01 03:33:20;;;;;;;9.27;4.20;;;;;;;24.55;53.91;99426.31;5032797;28;20041;-68
2023/07/01 03:35:48;;;;;;;7.10;4.50;;;;;;;24.55;53.81;99430.94;5032756;28;20050;-67
2023/07/01 03:38:16;;;;;;;6.80;4.35;;;;;;;24.54;54.06;99424.66;5032627;28;20071;-66
2023/07/01 03:40:44;;;;;;;8.88;4.45;;;;;;;24.51;54.23;99419.59;5032743;28;20079;-68
2023/07/01 03:43:14;;;;;;;6.57;4.45;;;;;;;24.51;54.22;99425.06;5032664;28;20050;-67
2023/07/01 03:45:42;;;;;;;13.48;4.38;;;;;;;24.49;54.02;99421.66;5032445;28;20045;-68
2023/07/01 03:48:10;;;;;;;8.13;4.60;;;;;;;24.48;54.41;99420.00;5032362;28;20056;-66
2023/07/01 03:50:39;;;;;;;8.45;4.28;;;;;;;24.48;54.56;99419.16;5032462;28;20057;-68
2023/07/01 03:53:07;;;;;;;7.00;4.50;;;;;;;24.46;54.74;99424.81;5032212;28;20053;-66
2023/07/01 03:55:35;;;;;;;7.00;4.43;;;;;;;24.45;54.75;99430.47;5032447;28;20099;-66
2023/07/01 03:58:04;;;;;;;7.82;4.32;;;;;;;24.43;54.82;99419.78;5032413;28;20049;-68
2023/07/01 04:00:33;;;;;;;8.25;4.65;;;;;;;24.43;54.68;99427.09;5031962;28;20494;-67
2023/07/01 04:03:05;;;;;;;9.20;4.75;;;;;;;24.42;54.78;99423.53;5032239;28;20045;-67
2023/07/01 04:05:35;;;;;;;7.20;4.60;;;;;;;24.42;54.77;99415.38;5032142;28;20053;-67
2023/07/01 04:08:03;;;;;;;6.75;4.32;;;;;;;24.43;54.73;99414.31;5032177;28;20460;-67
2023/07/01 04:10:32;;;;;;;9.00;4.43;;;;;;;24.44;54.75;99412.44;5032329;28;20049;-68
2023/07/01 04:13:01;;;;;;;9.13;4.80;;;;;;;24.45;54.82;99414.94;5032077;28;20049;-66
2023/07/01 04:15:29;;;;;;;7.80;4.22;;;;;;;24.47;54.83;99414.75;5031922;28;20050;-67
2023/07/01 04:17:58;;;;;;;9.80;4.30;;;;;;;24.48;54.51;99409.09;5031801;28;20045;-66
2023/07/01 04:20:27;;;;;;;7.03;4.38;;;;;;;24.49;54.78;99408.03;5032124;28;20125;-68
2023/07/01 04:22:56;;;;;;;8.68;4.13;;;;;;;24.50;54.78;99409.72;5031771;28;20081;-68
2023/07/01 04:25:24;;;;;;;5.85;4.30;;;;;;;24.51;54.71;99400.53;5031957;28;20067;-67
2023/07/01 04:27:52;;;;;;;6.85;4.05;;;;;;;24.52;54.66;99399.47;5031731;28;20111;-67
2023/07/01 04:30:24;;;;;;;6.68;4.43;;;;;;;24.53;54.43;99394.88;5031739;28;20041;-67
2023/07/01 04:32:52;;;;;;;6.78;4.20;;;;;;;24.53;54.54;99395.69;5031667;28;20133;-67
2023/07/01 04:35:22;;;;;;;7.78;4.43;;;;;;;24.54;54.45;99404.72;5031810;28;20137;-67
2023/07/01 04:37:50;;;;;;;6.20;3.97;;;;;;;24.54;54.53;99402.84;5031296;28;20045;-67
2023/07/01 04:40:19;;;;;;;9.30;4.18;;;;;;;24.53;54.29;99401.16;5031617;28;20475;-67
2023/07/01 04:42:50;;;;;;;7.85;4.60;;;;;;;24.54;54.13;99408.28;5031524;28;20461;-67
2023/07/01 04:45:19;;;;;;;8.57;4.40;;;;;;;24.54;54.35;99391.09;5031411;28;20052;-67
2023/07/01 04:47:48;;;;;;;7.18;4.50;;;;;;;24.53;54.34;99395.69;5031472;28;20148;-67
2023/07/01 04:50:17;;;;;;;7.55;4.20;;;;;;;24.55;54.27;99393.63;5031474;28;20103;-66
2023/07/01 04:52:46;;;;;;;6.07;4.30;;;;;;;24.57;54.03;99395.28;5031191;28;20049;-67
2023/07/01 04:55:15;;;;;;;7.55;4.45;;;;;;;24.58;54.25;99396.97;5031322;28;20050;-67
2023/07/01 04:57:43;;;;;;;8.48;4.47;;;;;;;24.59;54.16;99393.19;5031273;28;20095;-66
2023/07/01 05:00:13;;;;;;;8.20;4.32;;;;;;;24.59;54.18;99390.47;5031436;28;20041;-68
2023/07/01 05:02:41;;;;;;;10.38;4.65;;;;;;;24.61;54.35;99397.41;5031302;28;20104;-66
2023/07/01 05:05:09;;;;;;;7.50;4.47;;;;;;;24.61;54.43;99402.00;5031202;28;20045;-67
2023/07/01 05:07:38;;;;;;;8.60;4.53;;;;;;;24.62;54.33;99398.25;5031080;28;20049;-67
2023/07/01 05:10:09;;;;;;;6.68;4.13;;;;;;;24.63;54.12;99395.31;5030977;28;20127;-67
2023/07/01 05:12:37;;;;;;;9.43;4.40;;;;;;;24.63;54.49;99397.22;5031218;28;20132;-66
2023/07/01 05:15:06;;;;;;;7.55;4.13;;;;;;;24.62;53.66;99406.44;5031221;28;20449;-68
2023/07/01 05:17:34;;;;;;;7.65;4.20;;;;;;;24.58;53.50;99407.88;5031193;28;20042;-68
2023/07/01 05:20:04;;;;;;;7.22;4.32;;;;;;;24.58;53.46;99410.59;5031117;28;20064;-66
2023/07/01 05:22:33;;;;;;;7.10;4.50;;;;;;;24.59;53.60;99404.94;5031099;28;20050;-66
2023/07/01 05:25:01;;;;;;;5.57;3.97;;;;;;;24.60;53.51;99397.59;5030969;28;20052;-67
2023/07/01 05:27:31;;;;;;;7.03;4.35;;;;;;;24.60;53.21;99405.78;5031149;28;20048;-66
2023/07/01 05:29:59;;;;;;;7.53;4.20;;;;;;;24.61;53.50;99412.91;5031111;28;20371;-67
2023/07/01 05:32:27;;;;;;;6.65;4.28;;;;;;;24.61;53.61;99408.31;5031071;28;20053;-67
2023/07/01 05:34:56;;;;;;;6.88;4.43;;;;;;;24.59;53.17;99417.72;5031136;28;20132;-67
2023/07/01 05:37:24;;;;;;;9.20;4.93;;;;;;;24.59;53.15;99417.72;5031432;28;20057;-65
2023/07/01 05:39:52;;;;;;;8.43;4.10;;;;;;;24.60;53.06;99416.69;5031341;28;20052;-67
2023/07/01 05:42:20;;;;;;;10.65;4.57;;;;;;;24.62;53.32;99414.63;5031029;28;20053;-67
2023/07/01 05:44:50;;;;;;;10.07;4.30;;;;;;;24.63;53.32;99413.56;5031167;28;20141;-68
2023/07/01 05:47:18;;;;;;;8.80;4.53;;;;;;;24.65;53.43;99409.59;5030879;28;20052;-68
2023/07/01 05:49:46;;;;;;;7.55;4.20;;;;;;;24.67;53.33;99406.66;5032953;28;20041;-67
2023/07/01 05:52:14;;;;;;;7.18;4.28;;;;;;;24.70;53.05;99417.16;5034376;28;20549;-67
2023/07/01 05:54:42;;;;;;;7.70;4.50;;;;;;;24.71;52.98;99413.41;5034379;28;20045;-68
2023/07/01 05:57:11;;;;;;;6.85;3.80;;;;;;;24.72;52.98;99405.00;5034504;28;20046;-66
2023/07/01 05:59:39;;;;;;;8.68;4.78;;;;;;;24.73;52.68;99414.03;5034538;28;20054;-66
2023/07/01 06:02:08;;;;;;;6.65;3.92;;;;;;;24.73;52.77;99403.97;5034480;28;20045;-67
2023/07/01 06:04:36;;;;;;;7.47;4.05;;;;;;;24.75;52.75;99411.94;5034156;28;20058;-68
2023/07/01 06:07:05;;;;;;;7.05;4.45;;;;;;;24.76;52.85;99416.34;5034254;28;20068;-67
2023/07/01 06:09:33;;;;;;;6.95;4.72;;;;;;;24.77;52.84;99418.03;5034227;28;20050;-67
2023/07/01 06:12:01;;;;;;;7.50;4.30;;;;;;;24.78;52.53;99408.78;5034245;28;20084;-67
2023/07/01 06:14:29;;;;;;;6.70;4.55;;;;;;;24.80;52.70;99412.16;5034202;28;20490;-67
2023/07/01 06:16:57;;;;;;;7.50;4.45;;;;;;;24.79;52.90;99408.59;5034132;28;20049;-67
2023/07/01 06:19:27;;;;;;;7.03;4.50;;;;;;;24.81;52.67;99413.84;5034024;28;20060;-67
2023/07/01 06:21:55;;;;;;;9.85;4.47;;;;;;;24.81;52.88;99409.25;5034081;28;20053;-68
2023/07/01 06:24:23;;;;;;;8.65;4.47;;;;;;;24.82;52.63;99416.38;5033970;28;20108;-67
2023/07/01 06:26:51;;;;;;;6.80;3.83;;;;;;;24.85;52.67;99415.13;5033846;28;20088;-67
2023/07/01 06:29:20;;;;;;;5.60;4.38;;;;;;;24.86;52.46;99419.53;5033763;28;20111;-67
2023/07/01 06:31:48;;;;;;;6.28;4.30;;;;;;;24.87;52.72;99414.91;5033746;28;20069;-67
2023/07/01 06:34:17;;;;;;;8.32;4.40;;;;;;;24.88;52.24;99409.25;5033773;28;20528;-67
2023/07/01 06:36:47;;;;;;;7.75;4.20;;;;;;;24.90;52.41;99412.63;5033814;28;20041;-69
2023/07/01 06:39:15;;;;;;;7.28;4.30;;;;;;;24.91;52.46;99406.13;5034944;28;20045;-66
2023/07/01 06:41:43;;;;;;;6.82;4.45;;;;;;;24.93;52.43;99412.22;5033571;28;20469;-67
2023/07/01 06:44:12;;;;;;;7.72;4.07;;;;;;;24.95;52.46;99412.00;5024209;28;20069;-66
2023/07/01 06:46:40;;;;;;;6.60;4.25;;;;;;;24.97;52.77;99412.63;5033105;28;20050;-65
2023/07/01 06:49:08;;;;;;;7.32;4.53;;;;;;;24.97;52.27;99410.75;5033076;28;20056;-65
2023/07/01 06:51:37;;;;;;;9.90;5.50;;;;;;;24.98;51.57;99409.69;5032715;28;20118;-65
2023/07/01 06:54:10;;;;;;;8.40;4.65;;;;;;;24.98;51.50;99414.31;5033147;28;20060;-65
2023/07/01 06:56:39;;;;;;;7.85;4.55;;;;;;;24.98;51.74;99412.41;5032519;28;20048;-66
2023/07/01 06:59:07;;;;;;;7.00;4.32;;;;;;;25.00;52.14;99406.78;5032934;28;20042;-66
2023/07/01 07:01:35;;;;;;;6.60;4.22;;;;;;;25.01;52.29;99401.13;5032515;28;20439;-65
2023/07/01 07:04:03;;;;;;;6.95;4.47;;;;;;;25.04;52.13;99406.19;5033099;28;20046;-65
2023/07/01 07:06:31;;;;;;;8.65;4.38;;;;;;;25.06;52.21;99406.81;5032321;28;20088;-65
2023/07/01 07:08:59;;;;;;;9.07;5.05;;;;;;;25.08;52.11;99403.88;5032794;28;20053;-65
2023/07/01 07:11:29;;;;;;;9.68;4.95;;;;;;;25.10;52.00;99401.81;5032744;28;20046;-65
2023/07/01 07:13:57;;;;;;;11.40;5.18;;;;;;;25.11;52.17;99398.88;5032859;28;20049;-65
2023/07/01 07:16:26;;;;;;;8.68;4.95;;;;;;;25.14;51.78;99391.31;5032587;28;20049;-65
2023/07/01 07:18:54;;;;;;;7.80;5.13;;;;;;;25.16;51.87;99389.19;5032563;28;20134;-64
2023/07/01 07:21:23;;;;;;;7.78;5.40;;;;;;;25.18;51.75;99398.00;5032881;28;20061;-64
2023/07/01 07:23:51;;;;;;;6.57;4.82;;;;;;;25.18;51.27;99387.09;5032508;28;20137;-64
2023/07/01 07:26:19;;;;;;;7.05;4.80;;;;;;;25.18;50.54;99389.84;5032361;28;20140;-64
2023/07/01 07:28:48;;;;;;;8.02;4.93;;;;;;;25.16;49.76;99383.75;5032184;28;20491;-66
2023/07/01 07:31:16;;;;;;;6.25;4.93;;;;;;;25.15;49.92;99390.25;5032584;28;20052;-66
2023/07/01 07:33:45;;;;;;;10.30;5.50;;;;;;;25.16;50.16;99381.84;5032203;28;20081;-66
2023/07/01 07:36:13;;;;;;;10.18;5.35;;;;;;;25.19;50.34;99377.88;5031961;28;20045;-66
2023/07/01 07:38:41;;;;;;;12.65;5.95;;;;;;;25.20;50.59;99376.84;5032000;28;20058;-65
2023/07/01 07:41:11;;;;;;;15.52;5.47;;;;;;;25.21;50.46;99371.16;5024371;28;20104;-67
2023/07/01 07:43:39;;;;;;;12.00;5.57;;;;;;;25.23;50.07;99379.16;5012407;28;20046;-63
2023/07/01 07:46:08;;;;;;;15.32;6.45;;;;;;;25.23;50.27;99379.97;5012013;28;20487;-64
2023/07/01 07:48:36;;;;;;;17.83;7.03;;;;;;;25.25;50.65;99377.03;5012117;28;20085;-64
2023/07/01 07:51:05;;;;;;;10.82;5.72;;;;;;;25.27;50.41;99377.66;5012315;28;20104;-65
2023/07/01 07:53:33;;;;;;;12.82;6.68;;;;;;;25.27;50.29;99381.22;5012112;28;20415;-62
2023/07/01 07:56:01;;;;;;;11.20;6.15;;;;;;;25.31;50.07;99378.94;5012134;28;20046;-65
2023/07/01 07:58:29;;;;;;;11.50;6.45;;;;;;;25.32;50.06;99369.72;5011996;28;20046;-63
2023/07/01 08:00:57;;;;;;;11.77;6.07;;;;;;;25.35;50.41;99366.56;5012271;28;20054;-63
2023/07/01 08:03:26;;;;;;;10.65;5.10;;;;;;;25.36;50.17;99362.78;5012301;28;20046;-65
2023/07/01 08:05:55;;;;;;;10.90;5.85;;;;;;;25.38;50.38;99355.22;5011479;28;20053;-65
2023/07/01 08:08:23;;;;;;;9.57;5.10;;;;;;;25.39;49.78;99354.19;5011952;28;20050;-64
2023/07/01 08:10:53;;;;;;;8.57;5.32;;;;;;;25.43;50.33;99355.44;5011803;28;20621;-65
2023/07/01 08:13:21;;;;;;;8.40;5.10;;;;;;;25.46;50.07;99356.91;5011649;28;20096;-65
2023/07/01 08:15:49;;;;;;;9.30;5.45;;;;;;;25.46;49.54;99345.97;5011616;28;20440;-65
2023/07/01 08:18:17;;;;;;;7.63;4.95;;;;;;;25.46;49.46;99346.81;5011716;28;20056;-63
2023/07/01 08:20:47;;;;;;;10.48;5.50;;;;;;;25.48;49.75;99343.88;5011741;28;20486;-64
2023/07/01 08:23:16;;;;;;;9.40;5.05;;;;;;;25.50;49.90;99337.16;5011918;28;20054;-64
2023/07/01 08:25:44;;;;;;;7.85;5.13;;;;;;;25.53;49.55;99338.63;5011149;28;20046;-62
2023/07/01 08:28:12;;;;;;;6.82;5.50;;;;;;;25.56;49.90;99344.50;5011751;28;20080;-64
2023/07/01 08:30:40;;;;;;;7.93;5.13;;;;;;;25.60;49.99;99336.75;5011463;28;20053;-65
2023/07/01 08:33:09;;;;;;;8.10;5.20;;;;;;;25.62;49.62;99343.66;5011677;28;20077;-63
2023/07/01 08:35:37;;;;;;;9.20;5.25;;;;;;;25.66;49.32;99342.19;5011194;28;20077;-65
2023/07/01 08:38:06;;;;;;;8.85;5.47;;;;;;;25.69;48.87;99341.78;5011482;28;20046;-65
2023/07/01 08:40:34;;;;;;;6.28;4.85;;;;;;;25.72;48.41;99334.22;5011471;28;20425;-65
2023/07/01 08:43:05;;;;;;;7.50;5.20;;;;;;;25.75;48.89;99329.19;5011632;28;20091;-64
2023/07/01 08:45:34;;;;;;;8.07;5.07;;;;;;;25.78;48.53;99338.84;5010976;28;20520;-64
2023/07/01 08:48:06;;;;;;;7.55;5.25;;;;;;;25.80;48.00;99334.00;5011288;28;20041;-65
2023/07/01 08:50:40;;;;;;;8.38;5.60;;;;;;;25.82;47.72;99323.72;5011454;28;20081;-64
2023/07/01 08:53:11;;;;;;;8.55;5.10;;;;;;;25.85;47.97;99317.81;5010889;28;20050;-66
2023/07/01 08:55:40;;;;;;;6.90;5.03;;;;;;;25.88;48.11;99328.34;5010712;28;20080;-64
2023/07/01 08:58:08;;;;;;;8.75;5.40;;;;;;;25.91;47.86;99327.91;5010320;28;20299;-64
2023/07/01 09:00:36;;;;;;;8.50;5.28;;;;;;;25.94;47.45;99330.19;5009997;28;20132;-64
2023/07/01 09:03:05;;;;;;;6.95;5.50;;;;;;;25.96;47.40;99318.03;5010772;28;20081;-64
2023/07/01 09:05:33;;;;;;;9.13;5.38;;;;;;;25.99;47.63;99319.47;5010759;28;20559;-63
2023/07/01 09:08:02;;;;;;;8.60;5.38;;;;;;;26.01;47.37;99322.00;5011019;28;20482;-65
2023/07/01 09:10:31;;;;;;;9.27;5.22;;;;;;;26.04;46.83;99324.28;5011062;28;20081;-64
2023/07/01 09:13:10;;;;;;;7.72;4.97;;;;;;;26.05;46.50;99318.59;5011701;28;20064;-65
2023/07/01 09:15:45;;;;;;;7.57;5.10;;;;;;;26.09;47.28;99314.41;5010935;28;20145;-64
2023/07/01 09:18:24;;;;;;;6.18;4.95;;;;;;;26.13;47.07;99320.25;5011039;28;20096;-64
2023/07/01 09:20:53;;;;;;;5.75;4.63;;;;;;;26.14;47.26;99322.78;5011003;28;20081;-64
2023/07/01 09:23:32;;;;;;;6.93;5.22;;;;;;;26.16;47.26;99319.84;5012572;28;20046;-64
2023/07/01 09:26:19;;;;;;;6.97;4.63;;;;;;;26.18;46.29;99318.56;5014812;28;20138;-64
2023/07/01 09:28:49;;;;;;;7.78;4.70;;;;;;;26.21;46.49;99315.41;5014951;28;20104;-65
2023/07/01 09:31:18;;;;;;;6.80;4.53;;;;;;;26.24;46.05;99314.97;5014614;28;20076;-65
2023/07/01 09:34:01;;;;;;;7.45;4.85;;;;;;;26.26;46.42;99314.75;5014685;28;20145;-64
2023/07/01 09:36:31;;;;;;;7.93;5.10;;;;;;;26.29;46.08;99308.03;5014806;28;20045;-64
2023/07/01 09:39:01;;;;;;;6.22;4.78;;;;;;;26.33;45.46;99314.72;5014799;28;20052;-63
2023/07/01 09:41:30;;;;;;;5.50;4.53;;;;;;;26.35;45.58;99302.53;5014695;28;20052;-65
2023/07/01 09:43:59;;;;;;;6.82;4.82;;;;;;;26.37;45.32;99307.78;5014463;28;20054;-64
2023/07/01 09:46:42;;;;;;;7.43;4.57;;;;;;;26.39;44.83;99308.44;5014468;28;20052;-64
2023/07/01 09:49:11;;;;;;;5.97;4.85;;;;;;;26.42;45.23;99302.50;5014670;28;20423;-64
2023/07/01 09:51:47;;;;;;;6.18;4.60;;;;;;;26.44;45.63;99297.66;5014438;28;20054;-64
2023/07/01 09:54:26;;;;;;;7.28;4.88;;;;;;;26.44;45.88;99295.78;5014371;28;20053;-64
2023/07/01 09:56:57;;;;;;;7.20;4.47;;;;;;;26.48;45.44;99294.28;5014161;28;20125;-64
2023/07/01 09:59:26;;;;;;;7.55;4.50;;;;;;;26.53;45.53;99293.63;5014163;28;20403;-64
2023/07/01 10:01:57;;;;;;;6.22;4.60;;;;;;;26.55;45.54;99291.53;5014326;28;20054;-64
2023/07/01 10:04:28;;;;;;;8.50;4.50;;;;;;;26.57;45.26;99296.78;5014361;28;20077;-63
2023/07/01 10:06:57;;;;;;;7.68;4.75;;;;;;;26.58;44.70;99285.59;5014280;28;20046;-64
2023/07/01 10:09:27;;;;;;;7.90;4.95;;;;;;;26.63;44.81;99288.50;5022216;28;20045;-65
2023/07/01 10:12:00;;;;;;;6.78;4.70;;;;;;;26.66;45.24;99287.25;5034012;28;20485;-65
2023/07/01 10:14:32;;;;;;;8.05;4.43;;;;;;;26.68;44.93;99279.66;5034113;28;20054;-64
2023/07/01 10:17:02;;;;;;;5.72;4.57;;;;;;;26.70;44.65;99278.38;5034018;28;20099;-63
2023/07/01 10:19:32;;;;;;;7.57;4.70;;;;;;;26.73;45.29;99277.09;5033619;28;20163;-64
2023/07/01 10:22:22;;;;;;;6.28;4.90;;;;;;;26.75;45.76;99275.00;5033976;28;20053;-63
2023/07/01 10:24:57;;;;;;;6.28;4.65;;;;;;;26.77;45.39;99273.72;5034129;28;20136;-63
2023/07/01 10:28:14;;;;;;;5.63;4.32;;;;;;;26.80;44.63;99277.88;5034181;28;20133;-64
2023/07/01 10:31:16;;;;;;;6.30;4.50;;;;;;;26.85;44.69;99269.03;5034280;28;20458;-64
2023/07/01 10:33:54;;;;;;;6.82;4.35;;;;;;;26.87;44.34;99272.38;5034343;28;20087;-63
2023/07/01 10:36:24;;;;;;;5.45;3.85;;;;;;;26.91;44.13;99268.97;5033323;28;20132;-63
2023/07/01 10:38:53;;;;;;;6.53;4.25;;;;;;;26.95;44.58;99269.38;5034000;28;20099;-63
2023/07/01 10:41:55;;;;;;;7.07;3.90;;;;;;;26.98;44.05;99267.03;5033801;28;20136;-63
2023/07/01 10:44:28;;;;;;;5.20;3.70;;;;;;;27.03;43.82;99266.41;5033863;28;20045;-64
2023/07/01 10:47:16;;;;;;;6.18;3.83;;;;;;;27.06;43.30;99271.44;5033224;28;20068;-65
2023/07/01 10:50:04;;;;;;;8.27;4.13;;;;;;;27.10;43.84;99267.19;5033248;28;20046;-64
2023/07/01 10:52:34;;;;;;;5.85;4.22;;;;;;;27.15;44.09;99266.53;5033164;28;20088;-65
2023/07/01 10:55:03;;;;;;;5.75;3.90;;;;;;;27.17;43.73;99265.22;5032846;28;20046;-64
2023/07/01 10:57:31;;;;;;;5.22;3.70;;;;;;;27.20;43.22;99266.66;5032898;28;20532;-65
2023/07/01 11:00:37;;;;;;;8.00;4.28;;;;;;;27.23;43.55;99263.50;5033333;28;20060;-62
2023/07/01 11:03:11;;;;;;;8.07;4.75;;;;;;;27.27;44.30;99265.56;5032748;28;20460;-64
2023/07/01 11:05:56;;;;;;;9.30;4.90;;;;;;;27.32;44.67;99263.00;5032586;28;20050;-64
2023/07/01 11:08:26;;;;;;;7.72;4.63;;;;;;;27.37;44.93;99263.16;5033150;28;20059;-65
2023/07/01 11:10:55;;;;;;;7.10;4.85;;;;;;;27.41;44.87;99268.16;5032701;28;20049;-65
2023/07/01 11:13:24;;;;;;;9.65;5.00;;;;;;;27.45;44.24;99263.94;5032765;28;20092;-64
2023/07/01 11:16:06;;;;;;;6.18;4.18;;;;;;;27.48;44.02;99267.03;5032091;28;20050;-65
2023/07/01 11:18:42;;;;;;;6.97;4.00;;;;;;;27.52;43.37;99259.22;5032732;28;20085;-64
2023/07/01 11:21:12;;;;;;;7.55;4.13;;;;;;;27.55;42.96;99269.72;5032690;28;20069;-65
2023/07/01 11:23:43;;;;;;;8.50;4.40;;;;;;;27.57;43.48;99267.59;5032819;28;20099;-64
2023/07/01 11:26:18;;;;;;;5.10;3.85;;;;;;;27.60;42.94;99267.13;5032087;28;20084;-64
2023/07/01 11:28:46;;;;;;;6.38;4.10;;;;;;;27.62;42.85;99256.81;5032271;28;20091;-63
2023/07/01 11:31:16;;;;;;;6.85;3.88;;;;;;;27.66;42.46;99269.00;5032450;28;20046;-65
2023/07/01 11:33:47;;;;;;;7.35;4.10;;;;;;;27.68;42.65;99269.63;5032446;28;20051;-65
2023/07/01 11:36:16;;;;;;;7.40;4.22;;;;;;;27.73;42.76;99261.56;5031951;28;20053;-65
2023/07/01 11:38:45;;;;;;;7.32;4.45;;;;;;;27.75;43.20;99258.59;5032517;28;20060;-66
2023/07/01 11:41:16;;;;;;;7.75;4.28;;;;;;;27.77;43.24;99254.56;5032020;28;20447;-65
2023/07/01 11:43:44;;;;;;;7.30;4.43;;;;;;;27.77;42.99;99249.06;5032514;28;20053;-65
2023/07/01 11:46:16;;;;;;;6.28;4.40;;;;;;;27.80;43.13;99250.53;5031098;28;20107;-65